createdAt,value
2022-12-27T00:00:54.794Z,2.22
2022-12-27T00:01:57.026Z,2.22
2022-12-27T00:03:00.492Z,2.17
2022-12-27T00:04:02.814Z,1.92
2022-12-27T00:05:08.890Z,2.25
2022-12-27T00:06:13.245Z,2.72
2022-12-27T00:07:16.470Z,2.40
2022-12-27T00:08:20.147Z,2.25
2022-12-27T00:09:23.597Z,1.75
2022-12-27T00:10:25.822Z,2.33
2022-12-27T00:11:30.206Z,2.20
2022-12-27T00:12:32.407Z,1.90
2022-12-27T00:13:35.646Z,2.08
2022-12-27T00:14:37.876Z,2.20
2022-12-27T00:15:41.056Z,2.15
2022-12-27T00:16:43.318Z,2.40
2022-12-27T00:17:46.398Z,1.95
2022-12-27T00:18:49.541Z,1.90
2022-12-27T00:19:52.664Z,2.25
2022-12-27T00:20:57.991Z,2.53
2022-12-27T00:22:01.118Z,2.38
2022-12-27T00:23:03.383Z,2.45
2022-12-27T00:24:08.465Z,2.05
2022-12-27T00:25:10.989Z,2.03
2022-12-27T00:26:19.265Z,2.08
2022-12-27T00:27:21.356Z,2.22
2022-12-27T00:28:24.492Z,2.03
2022-12-27T00:29:26.571Z,2.08
2022-12-27T00:30:29.616Z,2.08
2022-12-27T00:31:32.656Z,2.10
2022-12-27T00:32:36.287Z,2.20
2022-12-27T00:33:39.447Z,2.58
2022-12-27T00:34:42.588Z,2.55
2022-12-27T00:35:44.756Z,2.05
2022-12-27T00:36:47.825Z,1.85
2022-12-27T00:37:49.889Z,1.80
2022-12-27T00:38:53.780Z,1.95
2022-12-27T00:39:58.205Z,2.05
2022-12-27T00:41:00.768Z,2.28
2022-12-27T00:42:03.973Z,1.95
2022-12-27T00:43:06.068Z,2.00
2022-12-27T00:44:09.224Z,2.58
2022-12-27T00:45:11.577Z,2.00
2022-12-27T00:46:15.075Z,2.20
2022-12-27T00:47:17.197Z,2.10
2022-12-27T00:48:20.272Z,1.98
2022-12-27T00:49:23.350Z,1.90
2022-12-27T00:50:25.832Z,2.50
2022-12-27T00:51:29.291Z,2.20
2022-12-27T00:52:31.382Z,2.08
2022-12-27T00:53:35.948Z,2.45
2022-12-27T00:54:38.191Z,1.90
2022-12-27T00:55:45.720Z,2.17
2022-12-27T00:56:47.961Z,2.17
2022-12-27T00:57:51.106Z,2.08
2022-12-27T00:58:54.361Z,1.95
2022-12-27T00:59:57.479Z,1.95
2022-12-27T01:01:06.309Z,2.05
2022-12-27T01:02:09.461Z,2.03
2022-12-27T01:03:11.637Z,1.95
2022-12-27T01:04:16.048Z,1.83
2022-12-27T01:05:18.383Z,2.60
2022-12-27T01:06:23.873Z,2.20
2022-12-27T01:07:26.124Z,2.03
2022-12-27T01:08:30.531Z,2.08
2022-12-27T01:09:33.583Z,2.38
2022-12-27T01:10:35.781Z,2.53
2022-12-27T01:11:41.245Z,2.15
2022-12-27T01:12:43.322Z,2.08
2022-12-27T01:13:47.292Z,2.03
2022-12-27T01:14:49.388Z,1.83
2022-12-27T01:15:52.435Z,2.75
2022-12-27T01:16:54.532Z,2.00
2022-12-27T01:17:57.700Z,2.55
2022-12-27T01:19:00.309Z,2.15
2022-12-27T01:20:04.043Z,1.95
2022-12-27T01:21:07.188Z,2.03
2022-12-27T01:22:10.362Z,2.17
2022-12-27T01:23:12.591Z,2.13
2022-12-27T01:24:15.731Z,2.38
2022-12-27T01:25:17.830Z,2.00
2022-12-27T01:26:22.706Z,2.40
2022-12-27T01:27:26.194Z,2.05
2022-12-27T01:28:29.341Z,1.80
2022-12-27T01:29:31.414Z,2.58
2022-12-27T01:30:34.483Z,2.08
2022-12-27T01:31:36.598Z,3.25
2022-12-27T01:32:39.749Z,2.33
2022-12-27T01:33:42.672Z,1.90
2022-12-27T01:34:46.054Z,2.05
2022-12-27T01:35:48.545Z,2.63
2022-12-27T01:36:51.665Z,2.45
2022-12-27T01:37:53.760Z,2.33
2022-12-27T01:38:57.011Z,2.10
2022-12-27T01:39:59.102Z,2.10
2022-12-27T01:41:23.128Z,3.33
2022-12-27T01:42:46.023Z,2.50
2022-12-27T01:43:48.171Z,2.28
2022-12-27T01:44:55.302Z,2.58
2022-12-27T01:45:58.435Z,2.22
2022-12-27T01:47:02.612Z,2.22
2022-12-27T01:48:13.121Z,2.45
2022-12-27T01:49:15.128Z,2.00
2022-12-27T01:50:26.632Z,2.13
2022-12-27T01:51:28.831Z,2.08
2022-12-27T01:52:36.364Z,2.45
2022-12-27T01:53:43.060Z,2.83
2022-12-27T01:54:45.337Z,2.38
2022-12-27T01:55:52.605Z,2.75
2022-12-27T01:56:55.952Z,2.60
2022-12-27T01:58:08.997Z,2.63
2022-12-27T01:59:14.175Z,1.95
2022-12-27T02:00:17.801Z,2.55
2022-12-27T02:01:22.175Z,2.20
2022-12-27T02:02:25.984Z,2.38
2022-12-27T02:03:31.131Z,2.20
2022-12-27T02:04:34.749Z,2.53
2022-12-27T02:05:41.726Z,2.33
2022-12-27T02:06:44.986Z,2.10
2022-12-27T02:07:58.929Z,2.33
2022-12-27T02:09:11.464Z,2.67
2022-12-27T02:10:13.840Z,2.38
2022-12-27T02:11:39.015Z,2.10
2022-12-27T02:12:41.395Z,2.55
2022-12-27T02:13:47.362Z,2.40
2022-12-27T02:14:50.137Z,2.03
2022-12-27T02:15:53.225Z,2.30
2022-12-27T02:16:56.016Z,2.72
2022-12-27T02:17:59.389Z,2.35
2022-12-27T02:19:01.556Z,2.50
2022-12-27T02:20:10.609Z,2.30
2022-12-27T02:21:38.946Z,2.40
2022-12-27T02:23:40.027Z,2.58
2022-12-27T02:25:12.436Z,2.55
2022-12-27T02:26:42.981Z,2.05
2022-12-27T02:28:08.274Z,2.70
2022-12-27T02:29:19.813Z,2.58
2022-12-27T02:30:23.191Z,2.05
2022-12-27T02:31:31.400Z,2.20
2022-12-27T02:32:39.408Z,2.35
2022-12-27T02:33:47.007Z,2.35
2022-12-27T02:34:58.468Z,2.50
2022-12-27T02:36:04.839Z,2.17
2022-12-27T02:37:12.059Z,2.45
2022-12-27T02:38:19.361Z,2.22
2022-12-27T02:39:25.612Z,2.22
2022-12-27T02:40:49.681Z,2.40
2022-12-27T02:42:12.326Z,2.30
2022-12-27T02:43:34.014Z,2.30
2022-12-27T02:44:55.877Z,2.13
2022-12-27T02:46:23.977Z,2.20
2022-12-27T02:47:45.584Z,2.35
2022-12-27T02:49:13.660Z,2.22
2022-12-27T02:50:35.258Z,2.28
2022-12-27T02:52:08.561Z,1.92
2022-12-27T02:53:19.504Z,2.00
2022-12-27T02:54:43.222Z,2.17
2022-12-27T02:56:15.471Z,2.28
2022-12-27T02:57:31.106Z,2.65
2022-12-27T02:58:42.153Z,2.30
2022-12-27T03:00:21.068Z,2.38
2022-12-27T03:01:54.513Z,2.50
2022-12-27T03:03:28.917Z,1.98
2022-12-27T03:04:50.048Z,2.35
2022-12-27T03:06:35.449Z,1.83
2022-12-27T03:07:44.460Z,2.17
2022-12-27T03:08:54.214Z,2.28
2022-12-27T03:10:25.904Z,2.35
2022-12-27T03:11:54.398Z,2.00
2022-12-27T03:13:24.134Z,2.78
2022-12-27T03:14:52.733Z,2.20
2022-12-27T03:16:15.556Z,2.53
2022-12-27T03:17:25.561Z,2.20
2022-12-27T03:18:48.297Z,2.28
2022-12-27T03:20:12.972Z,2.72
2022-12-27T03:21:39.777Z,2.70
2022-12-27T03:23:02.959Z,2.25
2022-12-27T03:24:31.121Z,2.45
2022-12-27T03:25:36.950Z,2.60
2022-12-27T03:26:43.651Z,2.42
2022-12-27T03:28:10.088Z,2.38
2022-12-27T03:29:33.551Z,2.40
2022-12-27T03:30:55.954Z,2.75
2022-12-27T03:32:22.277Z,2.35
2022-12-27T03:33:27.503Z,2.40
2022-12-27T03:34:38.172Z,2.28
2022-12-27T03:37:04.305Z,2.63
2022-12-27T03:38:09.485Z,2.80
2022-12-27T03:39:20.711Z,2.58
2022-12-27T03:40:34.640Z,3.00
2022-12-27T03:41:58.654Z,2.10
2022-12-27T03:43:12.351Z,2.90
2022-12-27T03:44:27.828Z,2.65
2022-12-27T03:45:54.083Z,2.60
2022-12-27T03:46:59.974Z,2.47
2022-12-27T03:48:06.411Z,2.88
2022-12-27T03:49:22.006Z,2.78
2022-12-27T03:50:29.720Z,2.60
2022-12-27T03:51:38.756Z,2.47
2022-12-27T03:52:45.372Z,2.40
2022-12-27T03:53:52.151Z,3.08
2022-12-27T03:54:56.163Z,2.38
2022-12-27T03:55:59.529Z,2.83
2022-12-27T03:57:04.772Z,2.88
2022-12-27T03:58:08.043Z,2.70
2022-12-27T03:59:12.373Z,2.85
2022-12-27T04:00:16.408Z,2.50
2022-12-27T04:01:18.703Z,2.90
2022-12-27T04:02:23.655Z,3.38
2022-12-27T04:03:25.866Z,3.08
2022-12-27T04:04:29.062Z,3.00
2022-12-27T04:05:31.146Z,2.92
2022-12-27T04:06:34.168Z,2.80
2022-12-27T04:07:36.181Z,2.72
2022-12-27T04:08:57.776Z,2.97
2022-12-27T04:10:18.688Z,2.80
2022-12-27T04:12:59.721Z,2.40
2022-12-27T04:14:20.075Z,2.70
2022-12-27T04:15:40.837Z,2.45
2022-12-27T04:17:01.690Z,2.70
2022-12-27T04:19:44.464Z,2.78
2022-12-27T04:21:04.647Z,2.78
2022-12-27T04:22:25.342Z,2.97
2022-12-27T04:23:46.404Z,2.47
2022-12-27T04:25:06.681Z,2.75
2022-12-27T04:26:27.429Z,2.75
2022-12-27T04:27:48.086Z,2.95
2022-12-27T04:29:08.775Z,3.25
2022-12-27T04:30:29.758Z,2.90
2022-12-27T04:33:10.350Z,3.17
2022-12-27T04:34:32.435Z,2.58
2022-12-27T04:35:35.459Z,2.92
2022-12-27T04:36:37.549Z,3.30
2022-12-27T04:37:40.665Z,2.40
2022-12-27T04:38:43.761Z,3.33
2022-12-27T04:40:08.881Z,2.58
2022-12-27T04:41:29.587Z,2.50
2022-12-27T04:42:49.802Z,3.20
2022-12-27T04:44:10.545Z,2.83
2022-12-27T04:45:31.253Z,3.08
2022-12-27T04:48:12.184Z,2.93
2022-12-27T04:49:36.589Z,2.75
2022-12-27T04:50:57.190Z,3.15
2022-12-27T04:52:16.974Z,3.55
2022-12-27T04:53:39.918Z,2.75
2022-12-27T04:54:57.805Z,2.80
2022-12-27T04:56:01.055Z,2.58
2022-12-27T04:57:03.189Z,3.00
2022-12-27T04:58:06.189Z,2.92
2022-12-27T04:59:26.576Z,3.20
2022-12-27T05:00:49.730Z,2.80
2022-12-27T05:02:04.186Z,3.08
2022-12-27T05:03:10.063Z,2.60
2022-12-27T05:04:12.414Z,2.55
2022-12-27T05:05:17.079Z,2.60
2022-12-27T05:06:19.848Z,2.35
2022-12-27T05:07:40.507Z,2.72
2022-12-27T05:09:01.763Z,2.50
2022-12-27T05:10:24.350Z,2.03
2022-12-27T05:11:45.393Z,2.50
2022-12-27T05:13:05.737Z,2.92
2022-12-27T05:14:12.306Z,2.47
2022-12-27T05:15:14.460Z,2.70
2022-12-27T05:16:17.591Z,2.70
2022-12-27T05:17:19.642Z,2.50
2022-12-27T05:18:23.214Z,2.65
2022-12-27T05:19:25.233Z,3.10
2022-12-27T05:20:29.649Z,2.80
2022-12-27T05:21:36.879Z,2.88
2022-12-27T05:22:57.505Z,2.83
2022-12-27T05:24:18.209Z,2.53
2022-12-27T05:25:35.163Z,2.67
2022-12-27T05:26:39.233Z,2.47
2022-12-27T05:27:41.246Z,2.33
2022-12-27T05:28:44.325Z,2.35
2022-12-27T05:29:46.637Z,2.50
2022-12-27T05:30:49.789Z,2.30
2022-12-27T05:31:51.864Z,2.53
2022-12-27T05:32:55.582Z,2.42
2022-12-27T05:33:58.211Z,2.90
2022-12-27T05:35:01.280Z,2.78
2022-12-27T05:36:05.429Z,2.75
2022-12-27T05:37:08.693Z,2.42
2022-12-27T05:38:10.871Z,2.60
2022-12-27T05:39:13.933Z,2.88
2022-12-27T05:40:16.214Z,2.50
2022-12-27T05:41:19.790Z,2.47
2022-12-27T05:42:21.806Z,2.40
2022-12-27T05:43:24.852Z,2.58
2022-12-27T05:44:27.076Z,2.85
2022-12-27T05:45:30.648Z,2.92
2022-12-27T05:46:32.778Z,2.55
2022-12-27T05:47:35.868Z,3.10
2022-12-27T05:48:38.313Z,2.20
2022-12-27T05:49:41.355Z,3.05
2022-12-27T05:50:43.455Z,2.95
2022-12-27T05:51:48.008Z,2.63
2022-12-27T05:52:50.318Z,2.80
2022-12-27T05:53:53.346Z,3.08
2022-12-27T05:54:55.722Z,3.08
2022-12-27T05:55:59.607Z,2.85
2022-12-27T05:57:01.770Z,2.63
2022-12-27T05:58:05.030Z,2.65
2022-12-27T05:59:08.506Z,2.95
2022-12-27T06:00:12.257Z,2.70
2022-12-27T06:01:18.204Z,2.97
2022-12-27T06:02:20.475Z,2.55
2022-12-27T06:03:24.733Z,2.58
2022-12-27T06:04:26.839Z,2.22
2022-12-27T06:05:29.870Z,2.45
2022-12-27T06:06:32.035Z,2.47
2022-12-27T06:07:37.942Z,2.45
2022-12-27T06:08:40.139Z,2.38
2022-12-27T06:09:43.229Z,2.55
2022-12-27T06:10:45.253Z,2.65
2022-12-27T06:11:48.307Z,2.45
2022-12-27T06:12:50.370Z,2.67
2022-12-27T06:13:54.955Z,3.03
2022-12-27T06:14:57.063Z,2.58
2022-12-27T06:16:01.988Z,2.50
2022-12-27T06:17:04.142Z,2.38
2022-12-27T06:18:07.253Z,2.60
2022-12-27T06:19:09.401Z,2.38
2022-12-27T06:20:12.556Z,2.38
2022-12-27T06:21:15.921Z,2.47
2022-12-27T06:22:19.049Z,2.63
2022-12-27T06:23:22.497Z,2.50
2022-12-27T06:24:25.621Z,2.75
2022-12-27T06:25:27.753Z,2.75
2022-12-27T06:26:31.044Z,2.42
2022-12-27T06:27:33.955Z,2.60
2022-12-27T06:28:37.073Z,2.40
2022-12-27T06:29:39.140Z,2.20
2022-12-27T06:30:42.181Z,2.50
2022-12-27T06:31:44.285Z,2.65
2022-12-27T06:32:47.357Z,2.30
2022-12-27T06:33:50.499Z,2.50
2022-12-27T06:34:53.550Z,2.65
2022-12-27T06:35:55.736Z,2.40
2022-12-27T06:36:58.781Z,2.38
2022-12-27T06:38:00.797Z,2.75
2022-12-27T06:39:05.210Z,2.38
2022-12-27T06:40:08.271Z,2.20
2022-12-27T06:41:13.591Z,2.60
2022-12-27T06:42:15.973Z,2.70
2022-12-27T06:43:19.149Z,2.60
2022-12-27T06:44:21.758Z,2.22
2022-12-27T06:45:25.223Z,2.50
2022-12-27T06:46:27.611Z,2.30
2022-12-27T06:47:30.688Z,2.55
2022-12-27T06:48:33.014Z,2.40
2022-12-27T06:49:36.061Z,2.65
2022-12-27T06:50:38.146Z,2.25
2022-12-27T06:51:41.191Z,2.22
2022-12-27T06:52:43.255Z,2.30
2022-12-27T06:53:46.444Z,2.08
2022-12-27T06:54:50.063Z,2.30
2022-12-27T06:55:53.184Z,2.50
2022-12-27T06:56:56.873Z,2.47
2022-12-27T06:58:00.061Z,2.28
2022-12-27T06:59:02.176Z,2.20
2022-12-27T07:00:06.314Z,2.33
2022-12-27T07:01:09.094Z,2.33
2022-12-27T07:02:13.811Z,2.28
2022-12-27T07:03:15.968Z,2.40
2022-12-27T07:04:19.125Z,2.28
2022-12-27T07:05:21.225Z,2.72
2022-12-27T07:06:26.213Z,2.30
2022-12-27T07:07:28.298Z,2.20
2022-12-27T07:08:31.517Z,2.97
2022-12-27T07:09:33.677Z,2.47
2022-12-27T07:10:38.564Z,2.47
2022-12-27T07:11:40.678Z,2.38
2022-12-27T07:12:43.697Z,2.42
2022-12-27T07:13:47.790Z,2.22
2022-12-27T07:14:50.786Z,2.25
2022-12-27T07:15:53.145Z,2.78
2022-12-27T07:16:56.276Z,2.35
2022-12-27T07:17:59.474Z,2.28
2022-12-27T07:19:02.502Z,2.30
2022-12-27T07:20:05.971Z,2.58
2022-12-27T07:21:11.357Z,2.47
2022-12-27T07:22:13.430Z,2.53
2022-12-27T07:23:19.437Z,2.03
2022-12-27T07:24:21.655Z,2.63
2022-12-27T07:25:24.669Z,2.75
2022-12-27T07:26:30.288Z,2.55
2022-12-27T07:27:34.744Z,2.70
2022-12-27T07:28:37.376Z,2.53
2022-12-27T07:29:45.553Z,2.30
2022-12-27T07:30:47.943Z,2.28
2022-12-27T07:31:51.008Z,2.80
2022-12-27T07:32:53.146Z,2.55
2022-12-27T07:33:56.794Z,2.33
2022-12-27T07:34:58.783Z,2.50
2022-12-27T07:36:03.004Z,2.35
2022-12-27T07:37:06.011Z,2.70
2022-12-27T07:38:08.013Z,2.63
2022-12-27T07:39:11.423Z,2.83
2022-12-27T07:40:13.467Z,2.75
2022-12-27T07:41:16.934Z,3.13
2022-12-27T07:42:20.379Z,2.42
2022-12-27T07:43:24.741Z,2.45
2022-12-27T07:44:26.806Z,2.70
2022-12-27T07:45:29.829Z,2.40
2022-12-27T07:46:32.881Z,2.40
2022-12-27T07:47:35.901Z,2.70
2022-12-27T07:48:38.360Z,2.80
2022-12-27T07:49:41.404Z,2.72
2022-12-27T07:50:43.450Z,2.80
2022-12-27T07:51:46.539Z,2.70
2022-12-27T07:52:48.523Z,2.53
2022-12-27T07:53:52.836Z,2.58
2022-12-27T07:54:54.897Z,2.33
2022-12-27T07:55:59.384Z,3.13
2022-12-27T07:57:01.413Z,2.15
2022-12-27T07:58:05.815Z,2.88
2022-12-27T07:59:13.642Z,2.85
2022-12-27T08:00:16.389Z,2.83
2022-12-27T08:01:21.542Z,2.78
2022-12-27T08:02:23.740Z,2.33
2022-12-27T08:03:26.933Z,3.00
2022-12-27T08:04:29.092Z,2.72
2022-12-27T08:05:32.144Z,2.50
2022-12-27T08:06:35.162Z,2.72
2022-12-27T08:07:39.327Z,3.05
2022-12-27T08:08:44.524Z,2.30
2022-12-27T08:09:49.692Z,2.67
2022-12-27T08:10:51.757Z,2.33
2022-12-27T08:11:54.813Z,2.67
2022-12-27T08:12:56.911Z,2.40
2022-12-27T08:14:02.379Z,2.35
2022-12-27T08:15:05.007Z,2.65
2022-12-27T08:16:08.837Z,2.70
2022-12-27T08:17:16.375Z,2.47
2022-12-27T08:18:19.489Z,2.70
2022-12-27T08:19:21.509Z,2.58
2022-12-27T08:20:24.561Z,1.98
2022-12-27T08:21:26.756Z,2.20
2022-12-27T08:22:29.869Z,2.30
2022-12-27T08:23:32.199Z,2.40
2022-12-27T08:24:35.171Z,2.50
2022-12-27T08:25:37.256Z,2.33
2022-12-27T08:26:40.253Z,2.25
2022-12-27T08:27:42.275Z,2.30
2022-12-27T08:28:45.354Z,2.20
2022-12-27T08:29:49.364Z,2.28
2022-12-27T08:30:52.934Z,2.00
2022-12-27T08:31:54.959Z,2.15
2022-12-27T08:32:58.092Z,2.35
2022-12-27T08:34:00.149Z,2.03
2022-12-27T08:35:33.122Z,2.00
2022-12-27T08:37:48.268Z,2.15
2022-12-27T08:38:53.067Z,2.25
2022-12-27T08:40:02.383Z,1.90
2022-12-27T08:41:05.141Z,2.40
2022-12-27T08:42:08.207Z,1.85
2022-12-27T08:43:10.740Z,2.60
2022-12-27T08:44:14.069Z,2.25
2022-12-27T08:45:17.485Z,2.40
2022-12-27T08:46:20.659Z,2.00
2022-12-27T08:47:23.199Z,2.10
2022-12-27T08:48:26.311Z,2.20
2022-12-27T08:49:28.353Z,2.30
2022-12-27T08:50:31.498Z,2.53
2022-12-27T08:51:40.871Z,2.33
2022-12-27T08:52:43.500Z,2.58
2022-12-27T08:53:46.687Z,2.10
2022-12-27T08:54:48.834Z,2.38
2022-12-27T08:55:51.883Z,2.38
2022-12-27T08:56:53.902Z,2.38
2022-12-27T08:58:00.317Z,2.88
2022-12-27T08:59:02.468Z,2.22
2022-12-27T09:00:07.219Z,2.72
2022-12-27T09:01:11.702Z,2.20
2022-12-27T09:02:15.254Z,2.30
2022-12-27T09:03:19.565Z,2.95
2022-12-27T09:04:23.476Z,2.55
2022-12-27T09:05:27.419Z,2.53
2022-12-27T09:06:31.091Z,2.65
2022-12-27T09:07:33.321Z,2.75
2022-12-27T09:08:36.648Z,2.50
2022-12-27T09:09:40.108Z,2.65
2022-12-27T09:10:42.742Z,3.60
2022-12-27T09:11:47.156Z,2.63
2022-12-27T09:12:49.246Z,2.70
2022-12-27T09:13:53.403Z,2.53
2022-12-27T09:14:59.020Z,2.25
2022-12-27T09:16:05.800Z,2.22
2022-12-27T09:17:10.881Z,2.60
2022-12-27T09:18:13.304Z,2.80
2022-12-27T09:19:18.535Z,2.38
2022-12-27T09:20:21.753Z,2.65
2022-12-27T09:21:27.862Z,2.13
2022-12-27T09:22:29.913Z,2.45
2022-12-27T09:23:32.998Z,2.17
2022-12-27T09:24:36.290Z,2.28
2022-12-27T09:25:38.635Z,2.53
2022-12-27T09:26:41.903Z,2.60
2022-12-27T09:27:44.978Z,2.50
2022-12-27T09:28:47.852Z,2.17
2022-12-27T09:29:50.932Z,2.92
2022-12-27T09:30:53.025Z,2.28
2022-12-27T09:31:56.193Z,2.38
2022-12-27T09:33:00.616Z,2.35
2022-12-27T09:34:03.011Z,2.40
2022-12-27T09:35:07.021Z,2.70
2022-12-27T09:36:11.617Z,2.35
2022-12-27T09:37:15.182Z,2.13
2022-12-27T09:38:18.487Z,1.95
2022-12-27T09:39:21.539Z,2.80
2022-12-27T09:40:23.683Z,2.00
2022-12-27T09:43:20.757Z,2.55
2022-12-27T09:44:34.149Z,2.38
2022-12-27T09:45:41.479Z,2.30
2022-12-27T09:46:53.481Z,2.25
2022-12-27T09:47:58.611Z,2.42
2022-12-27T09:49:04.712Z,2.65
2022-12-27T09:50:13.871Z,2.20
2022-12-27T09:51:20.725Z,2.55
2022-12-27T09:52:28.167Z,2.17
2022-12-27T09:53:40.574Z,2.63
2022-12-27T09:54:59.428Z,2.28
2022-12-27T09:56:05.203Z,2.55
2022-12-27T09:57:20.411Z,2.55
2022-12-27T09:58:38.114Z,1.98
2022-12-27T09:59:47.995Z,2.22
2022-12-27T10:00:51.868Z,2.05
2022-12-27T10:01:54.868Z,2.22
2022-12-27T10:03:00.282Z,2.17
2022-12-27T10:04:06.328Z,2.35
2022-12-27T10:05:21.701Z,2.33
2022-12-27T10:06:40.534Z,2.40
2022-12-27T10:07:54.490Z,2.35
2022-12-27T10:09:04.590Z,1.88
2022-12-27T10:10:17.363Z,2.75
2022-12-27T10:11:36.244Z,2.53
2022-12-27T10:13:06.302Z,2.20
2022-12-27T10:14:31.354Z,2.90
2022-12-27T10:15:41.180Z,2.20
2022-12-27T10:16:54.303Z,2.30
2022-12-27T10:18:12.588Z,2.30
2022-12-27T10:19:31.328Z,2.10
2022-12-27T10:20:47.908Z,2.22
2022-12-27T10:22:03.165Z,2.05
2022-12-27T10:23:11.389Z,2.03
2022-12-27T10:24:19.813Z,2.20
2022-12-27T10:25:25.340Z,2.22
2022-12-27T10:26:27.657Z,2.50
2022-12-27T10:27:32.186Z,2.13
2022-12-27T10:28:40.770Z,2.35
2022-12-27T10:29:43.597Z,2.15
2022-12-27T10:30:46.859Z,2.17
2022-12-27T10:31:49.190Z,2.00
2022-12-27T10:32:53.668Z,2.67
2022-12-27T10:33:56.274Z,2.35
2022-12-27T10:35:04.007Z,2.58
2022-12-27T10:36:14.242Z,2.30
2022-12-27T10:37:16.709Z,2.10
2022-12-27T10:38:20.605Z,1.80
2022-12-27T10:39:28.293Z,2.22
2022-12-27T10:40:38.671Z,2.17
2022-12-27T10:41:55.003Z,2.42
2022-12-27T10:43:04.884Z,2.05
2022-12-27T10:44:10.808Z,1.98
2022-12-27T10:45:32.392Z,1.88
2022-12-27T10:46:34.597Z,1.75
2022-12-27T10:47:38.214Z,2.03
2022-12-27T10:49:19.995Z,2.20
2022-12-27T10:50:13.053Z,2.30
2022-12-27T10:51:16.125Z,2.22
2022-12-27T10:52:23.685Z,2.00
2022-12-27T10:53:30.471Z,1.90
2022-12-27T10:54:33.718Z,1.67
2022-12-27T10:55:37.718Z,1.98
2022-12-27T10:56:42.667Z,1.80
2022-12-27T10:57:44.931Z,1.83
2022-12-27T10:58:56.577Z,1.90
2022-12-27T11:00:20.590Z,1.67
2022-12-27T11:01:25.849Z,1.98
2022-12-27T11:02:28.810Z,2.10
2022-12-27T11:03:32.301Z,2.15
2022-12-27T11:04:35.382Z,2.00
2022-12-27T11:05:39.809Z,1.90
2022-12-27T11:06:44.042Z,2.15
2022-12-27T11:07:46.071Z,1.77
2022-12-27T11:08:49.515Z,2.70
2022-12-27T11:10:07.155Z,1.90
2022-12-27T11:11:14.757Z,1.90
2022-12-27T11:12:23.886Z,2.10
2022-12-27T11:13:25.907Z,1.65
2022-12-27T11:14:28.946Z,2.22
2022-12-27T11:15:34.133Z,2.10
2022-12-27T11:16:37.582Z,1.90
2022-12-27T11:17:42.937Z,1.77
2022-12-27T11:18:49.985Z,2.03
2022-12-27T11:19:53.190Z,2.05
2022-12-27T11:20:59.193Z,1.90
2022-12-27T11:22:06.737Z,1.80
2022-12-27T11:23:15.228Z,1.73
2022-12-27T11:24:21.066Z,2.10
2022-12-27T11:25:25.599Z,2.10
2022-12-27T11:26:30.948Z,2.53
2022-12-27T11:27:34.435Z,2.20
2022-12-27T11:28:39.891Z,2.15
2022-12-27T11:29:45.805Z,2.30
2022-12-27T11:30:56.187Z,2.17
2022-12-27T11:32:07.812Z,1.70
2022-12-27T11:33:25.020Z,1.88
2022-12-27T11:34:32.403Z,2.38
2022-12-27T11:35:46.161Z,1.98
2022-12-27T11:36:54.268Z,2.15
2022-12-27T11:37:56.574Z,1.83
2022-12-27T11:39:01.533Z,1.88
2022-12-27T11:40:23.562Z,1.83
2022-12-27T11:41:39.033Z,1.90
2022-12-27T11:42:50.321Z,1.80
2022-12-27T11:43:56.261Z,2.60
2022-12-27T11:45:10.605Z,2.20
2022-12-27T11:46:22.701Z,2.03
2022-12-27T11:47:33.096Z,2.78
2022-12-27T11:48:40.950Z,1.90
2022-12-27T11:49:53.399Z,1.77
2022-12-27T11:51:31.173Z,2.22
2022-12-27T11:53:01.643Z,1.88
2022-12-27T11:54:31.264Z,1.73
2022-12-27T11:56:00.680Z,1.90
2022-12-27T11:57:20.938Z,2.15
2022-12-27T11:58:50.134Z,2.00
2022-12-27T11:59:59.698Z,1.63
2022-12-27T12:01:22.387Z,1.90
2022-12-27T12:02:34.814Z,1.73
2022-12-27T12:04:14.679Z,2.10
2022-12-27T12:05:44.091Z,2.17
2022-12-27T12:06:59.111Z,2.03
2022-12-27T12:08:24.889Z,2.13
2022-12-27T12:09:51.158Z,1.95
2022-12-27T12:11:00.352Z,1.77
2022-12-27T12:12:28.525Z,2.00
2022-12-27T12:13:58.738Z,1.73
2022-12-27T12:15:29.015Z,2.63
2022-12-27T12:17:09.804Z,2.20
2022-12-27T12:18:25.581Z,1.80
2022-12-27T12:19:55.658Z,2.25
2022-12-27T12:21:23.940Z,1.52
2022-12-27T12:22:46.236Z,1.67
2022-12-27T12:24:10.478Z,2.38
2022-12-27T12:25:53.142Z,1.90
2022-12-27T12:27:18.812Z,2.10
2022-12-27T12:28:58.140Z,2.20
2022-12-27T12:30:29.122Z,1.88
2022-12-27T12:31:49.475Z,2.10
2022-12-27T12:33:07.246Z,1.92
2022-12-27T12:34:28.125Z,1.90
2022-12-27T12:37:09.155Z,1.52
2022-12-27T12:38:21.145Z,2.00
2022-12-27T12:39:41.708Z,1.98
2022-12-27T12:41:22.797Z,1.83
2022-12-27T12:42:36.237Z,2.75
2022-12-27T12:43:57.131Z,2.15
2022-12-27T12:46:26.227Z,2.58
2022-12-27T12:47:52.576Z,2.30
2022-12-27T12:49:25.672Z,2.38
2022-12-27T12:50:55.017Z,2.42
2022-12-27T12:52:23.245Z,2.80
2022-12-27T12:53:43.520Z,2.35
2022-12-27T12:55:38.078Z,2.22
2022-12-27T12:56:59.855Z,2.08
2022-12-27T12:58:18.853Z,2.40
2022-12-27T12:59:50.905Z,2.38
2022-12-27T13:01:19.035Z,2.10
2022-12-27T13:02:47.372Z,2.40
2022-12-27T13:04:23.893Z,2.38
2022-12-27T13:05:35.322Z,2.47
2022-12-27T13:06:58.235Z,1.90
2022-12-27T13:08:13.448Z,2.35
2022-12-27T13:09:25.417Z,2.33
2022-12-27T13:10:51.662Z,1.98
2022-12-27T13:12:03.490Z,2.45
2022-12-27T13:13:15.533Z,1.80
2022-12-27T13:14:33.696Z,2.58
2022-12-27T13:15:55.319Z,2.40
2022-12-27T13:17:06.477Z,2.35
2022-12-27T13:18:29.999Z,2.45
2022-12-27T13:20:03.423Z,2.35
2022-12-27T13:21:24.011Z,2.47
2022-12-27T13:22:39.340Z,2.35
2022-12-27T13:23:51.072Z,2.05
2022-12-27T13:25:10.216Z,1.92
2022-12-27T13:26:23.730Z,2.80
2022-12-27T13:27:35.341Z,2.35
2022-12-27T13:28:53.093Z,2.30
2022-12-27T13:30:07.227Z,1.83
2022-12-27T13:31:25.829Z,2.40
2022-12-27T13:32:41.501Z,2.40
2022-12-27T13:33:54.526Z,2.42
2022-12-27T13:35:07.367Z,2.60
2022-12-27T13:36:25.268Z,2.40
2022-12-27T13:37:41.270Z,2.58
2022-12-27T13:39:27.067Z,2.63
2022-12-27T13:40:46.611Z,2.45
2022-12-27T13:42:01.102Z,2.38
2022-12-27T13:43:19.761Z,2.63
2022-12-27T13:44:37.275Z,2.30
2022-12-27T13:45:49.793Z,2.47
2022-12-27T13:47:29.894Z,2.25
2022-12-27T13:48:49.352Z,2.33
2022-12-27T13:50:16.170Z,2.30
2022-12-27T13:51:43.840Z,2.00
2022-12-27T13:53:00.347Z,2.90
2022-12-27T13:54:28.011Z,2.47
2022-12-27T13:55:38.714Z,1.70
2022-12-27T13:58:23.527Z,2.45
2022-12-27T14:00:08.819Z,2.88
2022-12-27T14:01:48.423Z,2.60
2022-12-27T14:03:34.412Z,2.35
2022-12-27T14:04:59.846Z,2.08
2022-12-27T14:06:27.503Z,2.10
2022-12-27T14:07:56.883Z,2.35
2022-12-27T14:09:18.321Z,2.20
2022-12-27T14:10:36.180Z,2.42
2022-12-27T14:11:51.504Z,1.77
2022-12-27T14:13:04.463Z,2.10
2022-12-27T14:14:09.715Z,2.13
2022-12-27T14:15:17.299Z,2.45
2022-12-27T14:16:36.083Z,2.80
2022-12-27T14:17:45.229Z,2.67
2022-12-27T14:19:06.991Z,2.67
2022-12-27T14:20:28.801Z,2.65
2022-12-27T14:22:00.315Z,2.70
2022-12-27T14:23:21.388Z,2.38
2022-12-27T14:24:59.830Z,2.60
2022-12-27T14:26:50.329Z,2.88
2022-12-27T14:28:21.684Z,2.50
2022-12-27T14:30:06.192Z,2.17
2022-12-27T14:31:41.400Z,3.17
2022-12-27T14:33:20.160Z,3.70
2022-12-27T14:34:57.376Z,3.40
2022-12-27T14:36:53.955Z,2.78
2022-12-27T14:38:20.901Z,2.40
2022-12-27T14:39:57.679Z,2.70
2022-12-27T14:41:30.275Z,2.55
2022-12-27T14:43:21.945Z,2.60
2022-12-27T14:45:06.746Z,2.53
2022-12-27T14:46:38.265Z,2.45
2022-12-27T14:48:06.561Z,2.63
2022-12-27T14:50:06.693Z,2.67
2022-12-27T14:53:33.644Z,2.72
2022-12-27T14:55:21.338Z,2.20
2022-12-27T14:56:34.157Z,2.53
2022-12-27T14:57:42.598Z,2.42
2022-12-27T14:58:57.883Z,2.83
2022-12-27T15:00:06.109Z,4.30
2022-12-27T15:01:21.261Z,2.58
2022-12-27T15:02:42.320Z,4.18
2022-12-27T15:04:00.320Z,3.70
2022-12-27T15:05:24.066Z,4.63
2022-12-27T15:06:57.530Z,2.53
2022-12-27T15:08:29.324Z,2.53
2022-12-27T15:09:43.439Z,2.70
2022-12-27T15:11:06.045Z,4.78
2022-12-27T15:12:22.866Z,2.95
2022-12-27T15:13:40.419Z,3.45
2022-12-27T15:15:08.421Z,4.18
2022-12-27T15:16:22.343Z,2.90
2022-12-27T15:17:42.675Z,4.00
2022-12-27T15:19:05.888Z,2.80
2022-12-27T15:20:35.850Z,3.10
2022-12-27T15:21:53.516Z,4.00
2022-12-27T15:23:15.032Z,3.80
2022-12-27T15:24:29.667Z,2.60
2022-12-27T15:25:49.379Z,3.30
2022-12-27T15:26:59.802Z,3.53
2022-12-27T15:28:10.562Z,3.40
2022-12-27T15:31:42.154Z,3.45
2022-12-27T15:32:53.981Z,2.80
2022-12-27T15:34:13.044Z,4.35
2022-12-27T15:35:53.308Z,4.03
2022-12-27T15:36:55.653Z,3.42
2022-12-27T15:38:10.848Z,4.72
2022-12-27T15:39:50.907Z,3.85
2022-12-27T15:41:17.385Z,3.83
2022-12-27T15:42:48.499Z,4.00
2022-12-27T15:44:23.072Z,3.55
2022-12-27T15:45:43.791Z,4.18
2022-12-27T15:47:15.756Z,3.63
2022-12-27T15:49:12.573Z,3.75
2022-12-27T15:50:39.796Z,4.13
2022-12-27T15:51:50.379Z,3.75
2022-12-27T15:53:08.920Z,4.53
2022-12-27T15:54:32.519Z,4.20
2022-12-27T15:56:08.010Z,4.20
2022-12-27T15:57:40.342Z,4.55
2022-12-27T15:58:44.347Z,5.13
2022-12-27T15:59:50.775Z,5.05
2022-12-27T16:01:26.192Z,4.55
2022-12-27T16:02:32.491Z,5.10
2022-12-27T16:03:39.195Z,5.30
2022-12-27T16:04:48.932Z,5.07